sensor_id;sensor_type;location;lat;lon;timestamp;temperature;humidity
59703;DHT22;45570;48.782;8.332;2024-02-14T00:00:32;5.70;99.90
59703;DHT22;45570;48.782;8.332;2024-02-14T00:03:11;5.70;99.90
59703;DHT22;45570;48.782;8.332;2024-02-14T00:05:44;5.70;99.90
59703;DHT22;45570;48.782;8.332;2024-02-14T00:08:18;5.80;99.90
59703;DHT22;45570;48.782;8.332;2024-02-14T00:10:53;5.80;99.90
59703;DHT22;45570;48.782;8.332;2024-02-14T00:13:27;5.80;99.90
59703;DHT22;45570;48.782;8.332;2024-02-14T00:16:02;5.90;99.90
59703;DHT22;45570;48.782;8.332;2024-02-14T00:18:39;5.80;99.90
59703;DHT22;45570;48.782;8.332;2024-02-14T00:21:15;5.90;99.90
59703;DHT22;45570;48.782;8.332;2024-02-14T00:23:52;5.90;99.90
59703;DHT22;45570;48.782;8.332;2024-02-14T00:26:27;5.90;99.90
59703;DHT22;45570;48.782;8.332;2024-02-14T00:29:14;5.90;99.90
59703;DHT22;45570;48.782;8.332;2024-02-14T00:31:49;5.90;99.90
59703;DHT22;45570;48.782;8.332;2024-02-14T00:34:28;5.90;99.90
59703;DHT22;45570;48.782;8.332;2024-02-14T00:37:03;5.90;99.90
59703;DHT22;45570;48.782;8.332;2024-02-14T00:39:38;5.80;99.90
59703;DHT22;45570;48.782;8.332;2024-02-14T00:42:18;5.80;99.90
59703;DHT22;45570;48.782;8.332;2024-02-14T00:44:59;5.80;99.90
59703;DHT22;45570;48.782;8.332;2024-02-14T00:47:36;5.90;99.90
59703;DHT22;45570;48.782;8.332;2024-02-14T00:50:37;5.90;99.90
59703;DHT22;45570;48.782;8.332;2024-02-14T00:53:10;5.90;99.90
59703;DHT22;45570;48.782;8.332;2024-02-14T00:55:44;5.90;99.90
59703;DHT22;45570;48.782;8.332;2024-02-14T00:58:18;5.90;99.90
59703;DHT22;45570;48.782;8.332;2024-02-14T01:00:58;5.90;99.90
59703;DHT22;45570;48.782;8.332;2024-02-14T01:03:40;5.90;99.90
59703;DHT22;45570;48.782;8.332;2024-02-14T01:06:23;5.90;99.90
59703;DHT22;45570;48.782;8.332;2024-02-14T01:09:01;6.00;99.90
59703;DHT22;45570;48.782;8.332;2024-02-14T01:11:42;6.10;99.90
59703;DHT22;45570;48.782;8.332;2024-02-14T01:14:18;6.10;99.90
59703;DHT22;45570;48.782;8.332;2024-02-14T01:16:55;6.10;99.90
59703;DHT22;45570;48.782;8.332;2024-02-14T01:19:32;6.10;99.90
59703;DHT22;45570;48.782;8.332;2024-02-14T01:22:11;6.10;99.90
59703;DHT22;45570;48.782;8.332;2024-02-14T01:24:47;6.10;99.90
59703;DHT22;45570;48.782;8.332;2024-02-14T01:27:24;6.10;99.90
59703;DHT22;45570;48.782;8.332;2024-02-14T01:30:02;6.20;99.90
59703;DHT22;45570;48.782;8.332;2024-02-14T01:32:39;6.10;99.90
59703;DHT22;45570;48.782;8.332;2024-02-14T01:35:16;6.00;99.90
59703;DHT22;45570;48.782;8.332;2024-02-14T01:38:22;6.00;99.90
59703;DHT22;45570;48.782;8.332;2024-02-14T01:41:09;5.80;99.90
59703;DHT22;45570;48.782;8.332;2024-02-14T01:43:45;5.70;99.90
59703;DHT22;45570;48.782;8.332;2024-02-14T01:46:19;5.60;99.90
59703;DHT22;45570;48.782;8.332;2024-02-14T01:48:56;5.60;99.90
59703;DHT22;45570;48.782;8.332;2024-02-14T01:51:32;5.60;99.90
59703;DHT22;45570;48.782;8.332;2024-02-14T01:54:16;5.60;99.90
59703;DHT22;45570;48.782;8.332;2024-02-14T01:56:54;5.50;99.90
59703;DHT22;45570;48.782;8.332;2024-02-14T01:59:28;5.40;99.90
59703;DHT22;45570;48.782;8.332;2024-02-14T02:02:04;5.50;99.90
59703;DHT22;45570;48.782;8.332;2024-02-14T02:04:42;5.60;99.90
59703;DHT22;45570;48.782;8.332;2024-02-14T02:07:20;5.70;99.90
59703;DHT22;45570;48.782;8.332;2024-02-14T02:09:59;5.70;99.90
59703;DHT22;45570;48.782;8.332;2024-02-14T02:12:34;5.70;99.90
59703;DHT22;45570;48.782;8.332;2024-02-14T02:15:10;5.70;99.90
59703;DHT22;45570;48.782;8.332;2024-02-14T02:17:47;5.70;99.90
59703;DHT22;45570;48.782;8.332;2024-02-14T02:20:23;5.70;99.90
59703;DHT22;45570;48.782;8.332;2024-02-14T02:23:02;5.80;99.90
59703;DHT22;45570;48.782;8.332;2024-02-14T02:25:42;5.80;99.90
59703;DHT22;45570;48.782;8.332;2024-02-14T02:28:17;4.80;99.90
59703;DHT22;45570;48.782;8.332;2024-02-14T02:30:52;5.80;99.90
59703;DHT22;45570;48.782;8.332;2024-02-14T02:33:28;5.90;99.90
59703;DHT22;45570;48.782;8.332;2024-02-14T02:36:02;6.00;99.90
59703;DHT22;45570;48.782;8.332;2024-02-14T02:38:40;6.10;99.90
59703;DHT22;45570;48.782;8.332;2024-02-14T02:41:16;6.10;99.90
59703;DHT22;45570;48.782;8.332;2024-02-14T02:43:51;6.10;99.90
59703;DHT22;45570;48.782;8.332;2024-02-14T02:46:28;6.00;99.90
59703;DHT22;45570;48.782;8.332;2024-02-14T02:49:07;6.00;99.90
59703;DHT22;45570;48.782;8.332;2024-02-14T02:51:47;6.00;99.90
59703;DHT22;45570;48.782;8.332;2024-02-14T02:54:25;5.90;99.90
59703;DHT22;45570;48.782;8.332;2024-02-14T02:57:00;5.80;99.90
59703;DHT22;45570;48.782;8.332;2024-02-14T02:59:39;5.80;99.90
59703;DHT22;45570;48.782;8.332;2024-02-14T03:02:18;5.80;99.90
59703;DHT22;45570;48.782;8.332;2024-02-14T03:04:56;5.90;99.90
59703;DHT22;45570;48.782;8.332;2024-02-14T03:07:34;5.90;99.90
59703;DHT22;45570;48.782;8.332;2024-02-14T03:10:30;6.00;99.90
59703;DHT22;45570;48.782;8.332;2024-02-14T03:13:05;6.00;99.90
59703;DHT22;45570;48.782;8.332;2024-02-14T03:15:39;6.10;99.90
59703;DHT22;45570;48.782;8.332;2024-02-14T03:18:16;6.20;99.90
59703;DHT22;45570;48.782;8.332;2024-02-14T03:20:50;6.20;99.90
59703;DHT22;45570;48.782;8.332;2024-02-14T03:23:25;6.30;99.90
59703;DHT22;45570;48.782;8.332;2024-02-14T03:26:02;6.30;99.90
59703;DHT22;45570;48.782;8.332;2024-02-14T03:28:39;6.30;99.90
59703;DHT22;45570;48.782;8.332;2024-02-14T03:31:14;6.30;99.90
59703;DHT22;45570;48.782;8.332;2024-02-14T03:33:50;6.30;99.90
59703;DHT22;45570;48.782;8.332;2024-02-14T03:36:27;6.30;99.90
59703;DHT22;45570;48.782;8.332;2024-02-14T03:39:04;6.40;99.90
59703;DHT22;45570;48.782;8.332;2024-02-14T03:41:42;6.40;99.90
59703;DHT22;45570;48.782;8.332;2024-02-14T03:44:16;6.50;99.90
59703;DHT22;45570;48.782;8.332;2024-02-14T03:46:53;6.60;99.90
59703;DHT22;45570;48.782;8.332;2024-02-14T03:49:30;6.50;99.90
59703;DHT22;45570;48.782;8.332;2024-02-14T03:52:05;6.50;99.90
59703;DHT22;45570;48.782;8.332;2024-02-14T03:54:42;6.40;99.90
59703;DHT22;45570;48.782;8.332;2024-02-14T03:57:17;6.50;99.90
59703;DHT22;45570;48.782;8.332;2024-02-14T03:59:51;6.60;99.90
59703;DHT22;45570;48.782;8.332;2024-02-14T04:02:25;6.60;99.90
59703;DHT22;45570;48.782;8.332;2024-02-14T04:05:01;6.70;99.90
59703;DHT22;45570;48.782;8.332;2024-02-14T04:07:56;6.60;99.90
59703;DHT22;45570;48.782;8.332;2024-02-14T04:11:01;6.60;99.90
59703;DHT22;45570;48.782;8.332;2024-02-14T04:13:37;6.70;99.90
59703;DHT22;45570;48.782;8.332;2024-02-14T04:16:11;6.70;99.90
59703;DHT22;45570;48.782;8.332;2024-02-14T04:18:48;6.60;99.90
59703;DHT22;45570;48.782;8.332;2024-02-14T04:21:27;6.60;99.90
59703;DHT22;45570;48.782;8.332;2024-02-14T04:24:03;6.70;99.90
59703;DHT22;45570;48.782;8.332;2024-02-14T04:26:37;6.80;99.90
59703;DHT22;45570;48.782;8.332;2024-02-14T04:29:17;6.80;99.90
59703;DHT22;45570;48.782;8.332;2024-02-14T04:31:52;6.80;99.90
59703;DHT22;45570;48.782;8.332;2024-02-14T04:34:31;6.80;99.90
59703;DHT22;45570;48.782;8.332;2024-02-14T04:37:12;6.90;99.90
59703;DHT22;45570;48.782;8.332;2024-02-14T04:39:51;6.90;99.90
59703;DHT22;45570;48.782;8.332;2024-02-14T04:42:26;6.90;99.90
59703;DHT22;45570;48.782;8.332;2024-02-14T04:45:05;6.90;99.90
59703;DHT22;45570;48.782;8.332;2024-02-14T04:47:42;6.90;99.90
59703;DHT22;45570;48.782;8.332;2024-02-14T04:50:19;6.80;99.90
59703;DHT22;45570;48.782;8.332;2024-02-14T04:52:55;6.80;99.90
59703;DHT22;45570;48.782;8.332;2024-02-14T04:55:35;6.90;99.90
59703;DHT22;45570;48.782;8.332;2024-02-14T04:58:11;7.00;99.90
59703;DHT22;45570;48.782;8.332;2024-02-14T05:00:49;7.10;99.90
59703;DHT22;45570;48.782;8.332;2024-02-14T05:03:24;7.10;99.90
59703;DHT22;45570;48.782;8.332;2024-02-14T05:06:01;7.10;99.90
59703;DHT22;45570;48.782;8.332;2024-02-14T05:08:35;7.20;99.90
59703;DHT22;45570;48.782;8.332;2024-02-14T05:11:10;7.20;99.90
59703;DHT22;45570;48.782;8.332;2024-02-14T05:13:44;7.20;99.90
59703;DHT22;45570;48.782;8.332;2024-02-14T05:16:22;7.10;99.90
59703;DHT22;45570;48.782;8.332;2024-02-14T05:18:58;7.20;99.90
59703;DHT22;45570;48.782;8.332;2024-02-14T05:21:34;7.20;99.90
